Korsika — LZG2359 — position and weather

sailwx.info

Track history (hours):
 
Tides and Currents Weather Stations Pressure Air Temp Water Temp Dewpoint Dewpoint Depression Visibility Wind Speed Wind Dir Waves Ship Positions

Korsika

Last reported at 2018-Jun-20 05:01 UTC. Time now 2018-Jun-20 05:12 UTC.
Position N 48°08' E 017°02'.

Length 80 m; draft 2.4 m.

Type: Ship. MMSI: 207072359.

Date/timePositionNaut miles runAvg speedWind from/ knotsBaromVisibWave heightAir tempDewpointWater temp
2018-Jun-20 05:01N 48°08' E 017°02'1 2.9
2018-Jun-20 04:31N 48°09' E 017°04'2 3.5
2018-Jun-20 04:00N 48°08' E 017°06'2 3.9
2018-Jun-20 03:31N 48°07' E 017°09'2 3.8
2018-Jun-20 03:00N 48°06' E 017°09'0 0.0
2018-Jun-20 02:30N 48°06' E 017°09'0 0.0
2018-Jun-20 02:01N 48°06' E 017°09'0 0.0
2018-Jun-20 01:31N 48°06' E 017°09'0 0.0
2018-Jun-20 01:00N 48°06' E 017°09'0 0.0
2018-Jun-20 00:31N 48°06' E 017°09'0 0.0
2018-Jun-20 00:01N 48°06' E 017°09'0 0.0
2018-Jun-19 23:31N 48°06' E 017°09'0 0.0
2018-Jun-19 23:01N 48°06' E 017°09'0 0.0
2018-Jun-19 22:31N 48°06' E 017°09'0 0.0
2018-Jun-19 22:01N 48°06' E 017°09'0 0.0
2018-Jun-19 21:31N 48°06' E 017°09'0 0.0
2018-Jun-19 21:00N 48°06' E 017°09'0 0.0
2018-Jun-19 20:30N 48°06' E 017°09'0 0.0
2018-Jun-19 20:00N 48°06' E 017°09'0 0.0
2018-Jun-19 19:30N 48°06' E 017°09'0 0.0
2018-Jun-19 19:01N 48°06' E 017°09'0 0.0
2018-Jun-19 18:30N 48°06' E 017°09'0 0.0
2018-Jun-19 18:01N 48°06' E 017°09'0 0.0
2018-Jun-19 17:30N 48°06' E 017°09'0 0.0
2018-Jun-19 17:01N 48°06' E 017°09'0 0.0
2018-Jun-19 16:30N 48°06' E 017°09'0 0.0
2018-Jun-19 16:00N 48°06' E 017°09'0 0.0
2018-Jun-19 15:31N 48°06' E 017°09'0 0.0
2018-Jun-19 15:00N 48°06' E 017°09'0 0.0
2018-Jun-19 14:31N 48°06' E 017°09'0 0.0
2018-Jun-19 14:01N 48°06' E 017°09'0 0.0
2018-Jun-19 13:31N 48°06' E 017°09'2 3.2
2018-Jun-19 13:01N 48°04' E 017°10'3 5.7
2018-Jun-19 12:31N 48°02' E 017°13'3 6.4
2018-Jun-19 12:00N 48°00' E 017°17'3 6.7
2018-Jun-19 11:31N 47°60' E 017°22'3 6.7
2018-Jun-19 11:00N 47°57' E 017°26'3 6.7
2018-Jun-19 10:30N 47°55' E 017°29'3 5.8
2018-Jun-19 10:00N 47°53' E 017°32'1 1.6
2018-Jun-19 09:30N 47°52' E 017°33'3 6.7
2018-Jun-19 09:00N 47°50' E 017°36'2 4.5
2018-Jun-19 08:31N 47°48' E 017°38'  
2018-Jun-13 13:47N 47°21' E 018°57'310.3
2018-Jun-13 13:30N 47°23' E 018°60'510.5
2018-Jun-13 13:00N 47°28' E 019°04'510.4
2018-Jun-13 12:30N 47°33' E 019°04'60 7.6
2018-Jun-13 04:34N 47°49' E 017°37'110.5
2018-Jun-13 04:29N 47°49' E 017°36'3 3.5
2018-Jun-13 03:39N 47°52' E 017°34'0 0.0
2018-Jun-13 03:25N 47°52' E 017°34'0 0.0
2018-Jun-13 02:50N 47°52' E 017°34'0 0.0
2018-Jun-13 02:29N 47°52' E 017°34'0 0.0
2018-Jun-13 02:00N 47°52' E 017°34'0 0.0
2018-Jun-13 01:30N 47°52' E 017°34'0 0.0
2018-Jun-13 00:57N 47°52' E 017°34'0 0.0
2018-Jun-13 00:30N 47°52' E 017°34'0 0.0
2018-Jun-13 00:00N 47°52' E 017°34'0 0.0
2018-Jun-12 23:27N 47°52' E 017°34'0 0.0
2018-Jun-12 22:33N 47°52' E 017°34'0 0.0
2018-Jun-12 22:30N 47°52' E 017°34'0 0.0
2018-Jun-12 22:00N 47°52' E 017°34'0 0.0
2018-Jun-12 21:30N 47°52' E 017°34'0 0.0
2018-Jun-12 20:57N 47°52' E 017°34'0 0.0
2018-Jun-12 20:29N 47°52' E 017°34'0 0.0
2018-Jun-12 20:00N 47°52' E 017°34'0 0.0
2018-Jun-12 19:29N 47°52' E 017°34'0 0.0
2018-Jun-12 19:00N 47°52' E 017°34'0 0.0
2018-Jun-12 18:30N 47°52' E 017°34'2 2.7
2018-Jun-12 17:56N 47°53' E 017°32'0 0.9
2018-Jun-12 17:30N 47°53' E 017°32'4 7.9
2018-Jun-12 17:00N 47°56' E 017°28'5 9.6
2018-Jun-12 16:30N 47°59' E 017°23'5 9.1
2018-Jun-12 16:00N 48°01' E 017°16'510.1
2018-Jun-12 15:30N 48°04' E 017°10'5 9.9
2018-Jun-12 15:00N 48°08' E 017°07'611.2
2018-Jun-12 14:29N 48°10' E 016°59'510.9
2018-Jun-12 13:59N 48°08' E 016°52'1511.2
2018-Jun-12 12:37N 48°10' E 016°29'0 1.0
2018-Jun-12 12:10N 48°11' E 016°29'0 1.5
2018-Jun-12 12:00N 48°11' E 016°28'  
Track history (hours):
 
Tides and Currents Weather Stations Pressure Air Temp Water Temp Dewpoint Dewpoint Depression Visibility Wind Speed Wind Dir Waves Ship Positions

Korsika

Last reported at 2018-Jun-20 05:01 UTC. Time now 2018-Jun-20 05:12 UTC.
Position N 48°08' E 017°02'.

Length 80 m; draft 2.4 m.

Type: Ship. MMSI: 207072359.

Date/timePositionNaut miles runAvg speedWind from/ knotsBaromVisibWave heightAir tempDewpointWater temp
2018-Jun-20 05:01N 48°08' E 017°02'1 2.9
2018-Jun-20 04:31N 48°09' E 017°04'2 3.5
2018-Jun-20 04:00N 48°08' E 017°06'2 3.9
2018-Jun-20 03:31N 48°07' E 017°09'2 3.8
2018-Jun-20 03:00N 48°06' E 017°09'0 0.0
2018-Jun-20 02:30N 48°06' E 017°09'0 0.0
2018-Jun-20 02:01N 48°06' E 017°09'0 0.0
2018-Jun-20 01:31N 48°06' E 017°09'0 0.0
2018-Jun-20 01:00N 48°06' E 017°09'0 0.0
2018-Jun-20 00:31N 48°06' E 017°09'0 0.0
2018-Jun-20 00:01N 48°06' E 017°09'0 0.0
2018-Jun-19 23:31N 48°06' E 017°09'0 0.0
2018-Jun-19 23:01N 48°06' E 017°09'0 0.0
2018-Jun-19 22:31N 48°06' E 017°09'0 0.0
2018-Jun-19 22:01N 48°06' E 017°09'0 0.0
2018-Jun-19 21:31N 48°06' E 017°09'0 0.0
2018-Jun-19 21:00N 48°06' E 017°09'0 0.0
2018-Jun-19 20:30N 48°06' E 017°09'0 0.0
2018-Jun-19 20:00N 48°06' E 017°09'0 0.0
2018-Jun-19 19:30N 48°06' E 017°09'0 0.0
2018-Jun-19 19:01N 48°06' E 017°09'0 0.0
2018-Jun-19 18:30N 48°06' E 017°09'0 0.0
2018-Jun-19 18:01N 48°06' E 017°09'0 0.0
2018-Jun-19 17:30N 48°06' E 017°09'0 0.0
2018-Jun-19 17:01N 48°06' E 017°09'0 0.0
2018-Jun-19 16:30N 48°06' E 017°09'0 0.0
2018-Jun-19 16:00N 48°06' E 017°09'0 0.0
2018-Jun-19 15:31N 48°06' E 017°09'0 0.0
2018-Jun-19 15:00N 48°06' E 017°09'0 0.0
2018-Jun-19 14:31N 48°06' E 017°09'0 0.0
2018-Jun-19 14:01N 48°06' E 017°09'0 0.0
2018-Jun-19 13:31N 48°06' E 017°09'2 3.2
2018-Jun-19 13:01N 48°04' E 017°10'3 5.7
2018-Jun-19 12:31N 48°02' E 017°13'3 6.4
2018-Jun-19 12:00N 48°00' E 017°17'3 6.7
2018-Jun-19 11:31N 47°60' E 017°22'3 6.7
2018-Jun-19 11:00N 47°57' E 017°26'3 6.7
2018-Jun-19 10:30N 47°55' E 017°29'3 5.8
2018-Jun-19 10:00N 47°53' E 017°32'1 1.6
2018-Jun-19 09:30N 47°52' E 017°33'3 6.7
2018-Jun-19 09:00N 47°50' E 017°36'2 4.5
2018-Jun-19 08:31N 47°48' E 017°38'  
2018-Jun-13 13:47N 47°21' E 018°57'310.3
2018-Jun-13 13:30N 47°23' E 018°60'510.5
2018-Jun-13 13:00N 47°28' E 019°04'510.4
2018-Jun-13 12:30N 47°33' E 019°04'60 7.6
2018-Jun-13 04:34N 47°49' E 017°37'110.5
2018-Jun-13 04:29N 47°49' E 017°36'3 3.5
2018-Jun-13 03:39N 47°52' E 017°34'0 0.0
2018-Jun-13 03:25N 47°52' E 017°34'0 0.0
2018-Jun-13 02:50N 47°52' E 017°34'0 0.0
2018-Jun-13 02:29N 47°52' E 017°34'0 0.0
2018-Jun-13 02:00N 47°52' E 017°34'0 0.0
2018-Jun-13 01:30N 47°52' E 017°34'0 0.0
2018-Jun-13 00:57N 47°52' E 017°34'0 0.0
2018-Jun-13 00:30N 47°52' E 017°34'0 0.0
2018-Jun-13 00:00N 47°52' E 017°34'0 0.0
2018-Jun-12 23:27N 47°52' E 017°34'0 0.0
2018-Jun-12 22:33N 47°52' E 017°34'0 0.0
2018-Jun-12 22:30N 47°52' E 017°34'0 0.0
2018-Jun-12 22:00N 47°52' E 017°34'0 0.0
2018-Jun-12 21:30N 47°52' E 017°34'0 0.0
2018-Jun-12 20:57N 47°52' E 017°34'0 0.0
2018-Jun-12 20:29N 47°52' E 017°34'0 0.0
2018-Jun-12 20:00N 47°52' E 017°34'0 0.0
2018-Jun-12 19:29N 47°52' E 017°34'0 0.0
2018-Jun-12 19:00N 47°52' E 017°34'0 0.0
2018-Jun-12 18:30N 47°52' E 017°34'2 2.7
2018-Jun-12 17:56N 47°53' E 017°32'0 0.9
2018-Jun-12 17:30N 47°53' E 017°32'4 7.9
2018-Jun-12 17:00N 47°56' E 017°28'5 9.6
2018-Jun-12 16:30N 47°59' E 017°23'5 9.1
2018-Jun-12 16:00N 48°01' E 017°16'510.1
2018-Jun-12 15:30N 48°04' E 017°10'5 9.9
2018-Jun-12 15:00N 48°08' E 017°07'611.2
2018-Jun-12 14:29N 48°10' E 016°59'510.9
2018-Jun-12 13:59N 48°08' E 016°52'1511.2
2018-Jun-12 12:37N 48°10' E 016°29'0 1.0
2018-Jun-12 12:10N 48°11' E 016°29'0 1.5
2018-Jun-12 12:00N 48°11' E 016°28'  

Dump ship's entire track history